Terminal Aerodrome Forecast
Issued by NWS

Home | Current Version | Previous Version | Text Only | Print | Product List | Glossary On
Versions: 1 2 3 4 5 6 7 8 9 10 11 12 13 14 15
347
FTUS43 KOAX 070613 RRA
TAFBFF
TAF
KBFF 070613Z 0706/0806 32009KT P6SM SCT050 BKN150
     FM070900 31018G27KT P6SM BKN080
     FM071900 31027G36KT P6SM FEW200
     FM080100 31018G27KT P6SM SKC=

USA.gov is the U.S. government's official web portal to all federal, state and local government web resources and services.